Time;durP1;ratioP1;P1;durP2;ratioP2;P2;SDS_P1;SDS_P2;PMS_P1;PMS_P2;Temp;Humidity;BMP_temperature;BMP_pressure;BME280_temperature;BME280_humidity;BME280_pressure;Samples;Min_cycle;Max_cycle;Signal;HPM_P1;HPM_P2
2023/10/07 00:00:27;;;;;;;14.43;5.72;;;17.60;99.90;;;;;;5013440;28;20367;-82
2023/10/07 00:02:55;;;;;;;17.10;5.95;;;17.70;99.90;;;;;;5011758;28;20046;-80
2023/10/07 00:05:26;;;;;;;11.68;5.43;;;17.70;99.90;;;;;;5013113;28;20104;-84
2023/10/07 00:07:55;;;;;;;10.57;5.25;;;17.70;99.90;;;;;;5013035;28;20045;-82
2023/10/07 00:10:25;;;;;;;12.93;5.35;;;17.70;99.90;;;;;;5012686;28;20117;-80
2023/10/07 00:12:52;;;;;;;12.00;5.80;;;17.30;99.90;;;;;;5013306;28;20038;-87
2023/10/07 00:15:21;;;;;;;13.52;5.15;;;17.70;99.90;;;;;;5012490;28;20523;-85
2023/10/07 00:17:48;;;;;;;10.43;5.25;;;17.70;99.90;;;;;;5012537;28;20054;-84
2023/10/07 00:20:13;;;;;;;10.90;5.18;;;17.80;99.90;;;;;;5011452;28;20482;-83
2023/10/07 00:22:41;;;;;;;15.43;5.47;;;17.70;99.90;;;;;;5013076;28;20041;-87
2023/10/07 00:25:15;;;;;;;12.98;5.55;;;17.70;99.90;;;;;;5011793;28;20050;-88
2023/10/07 00:27:41;;;;;;;12.25;5.03;;;17.70;99.90;;;;;;5012887;28;20054;-84
2023/10/07 00:30:15;;;;;;;13.90;5.22;;;17.70;99.90;;;;;;5012810;28;20049;-86
2023/10/07 00:32:45;;;;;;;13.63;5.05;;;17.70;99.90;;;;;;5012696;28;20053;-82
2023/10/07 00:35:11;;;;;;;9.93;5.13;;;17.70;99.90;;;;;;5012642;28;20046;-86
2023/10/07 00:37:46;;;;;;;7.57;4.93;;;17.70;99.90;;;;;;5012724;28;20042;-86
2023/10/07 00:40:24;;;;;;;11.50;5.53;;;17.70;99.90;;;;;;5012252;28;20474;-84
2023/10/07 00:42:51;;;;;;;10.10;5.45;;;17.70;99.90;;;;;;5012875;28;20046;-85
2023/10/07 00:45:16;;;;;;;10.35;5.20;;;17.70;99.90;;;;;;5012583;28;20108;-85
2023/10/07 00:47:45;;;;;;;9.98;5.13;;;17.80;99.90;;;;;;5012489;28;20054;-88
2023/10/07 00:50:12;;;;;;;15.57;6.38;;;17.80;99.90;;;;;;5012537;28;20096;-85
2023/10/07 00:52:57;;;;;;;12.00;4.60;;;17.80;99.90;;;;;;5012878;28;20054;-85
2023/10/07 00:55:29;;;;;;;10.73;5.45;;;17.80;99.90;;;;;;5011942;28;20053;-84
2023/10/07 00:58:13;;;;;;;15.83;5.10;;;17.70;99.90;;;;;;5016225;28;20061;-84
2023/10/07 01:08:41;;;;;;;13.20;6.00;;;17.60;99.90;;;;;;5016223;28;20128;-85
2023/10/07 01:11:11;;;;;;;14.88;6.07;;;17.50;99.90;;;;;;5015969;28;20100;-84
2023/10/07 01:13:44;;;;;;;17.08;5.97;;;17.50;99.90;;;;;;5015587;28;20053;-84
2023/10/07 01:16:14;;;;;;;13.73;5.75;;;17.50;99.90;;;;;;5016281;28;20050;-86
2023/10/07 01:18:40;;;;;;;14.18;6.00;;;17.40;99.90;;;;;;5015939;28;20089;-86
2023/10/07 01:21:11;;;;;;;11.27;5.10;;;17.40;99.90;;;;;;4998225;28;20049;-84
2023/10/07 01:23:44;;;;;;;14.82;6.55;;;17.30;99.90;;;;;;5015491;28;20042;-83
2023/10/07 01:26:20;;;;;;;17.80;5.93;;;17.30;99.90;;;;;;5015805;28;20045;-86
2023/10/07 01:28:47;;;;;;;12.38;6.90;;;17.30;99.90;;;;;;5016223;28;20046;-82
2023/10/07 01:31:18;;;;;;;13.55;6.38;;;17.20;99.90;;;;;;5015549;28;20049;-85
2023/10/07 01:33:47;;;;;;;13.98;6.32;;;17.20;99.90;;;;;;5015541;28;20046;-85
2023/10/07 01:36:19;;;;;;;22.40;6.97;;;17.20;99.90;;;;;;5015525;28;20077;-84
2023/10/07 01:38:48;;;;;;;15.48;6.45;;;17.20;99.90;;;;;;5015624;28;20050;-84
2023/10/07 01:41:18;;;;;;;13.23;6.28;;;17.10;99.90;;;;;;5013939;28;20049;-83
2023/10/07 01:44:05;;;;;;;12.18;6.25;;;17.20;99.90;;;;;;5015171;28;20120;-84
2023/10/07 01:46:32;;;;;;;10.07;5.85;;;17.20;99.90;;;;;;5015633;28;20075;-85
2023/10/07 01:49:12;;;;;;;15.45;6.05;;;17.20;99.90;;;;;;5014966;28;20057;-83
2023/10/07 01:51:43;;;;;;;16.02;6.28;;;17.20;99.90;;;;;;5015486;28;20042;-83
2023/10/07 01:54:11;;;;;;;15.02;6.00;;;17.20;99.90;;;;;;5015142;28;20151;-84
2023/10/07 01:56:38;;;;;;;10.63;5.68;;;17.20;99.90;;;;;;5014861;28;20061;-82
2023/10/07 01:59:09;;;;;;;11.75;5.78;;;17.20;99.90;;;;;;5015400;28;20058;-84
2023/10/07 02:01:35;;;;;;;13.48;5.78;;;17.20;99.90;;;;;;5014735;28;20516;-85
2023/10/07 02:04:06;;;;;;;11.00;6.03;;;17.20;99.90;;;;;;5013359;28;20056;-84
2023/10/07 02:06:42;;;;;;;8.05;5.30;;;17.20;99.90;;;;;;5015056;28;20068;-82
2023/10/07 02:09:08;;;;;;;16.40;6.50;;;17.20;99.90;;;;;;5015006;28;20072;-82
2023/10/07 02:11:36;;;;;;;14.60;5.72;;;17.20;99.90;;;;;;5013771;28;20474;-83
2023/10/07 02:14:02;;;;;;;13.65;5.40;;;17.20;99.90;;;;;;5014968;28;20149;-85
2023/10/07 02:16:28;;;;;;;14.80;6.53;;;17.30;99.90;;;;;;5013912;28;20073;-83
2023/10/07 02:18:54;;;;;;;13.45;4.68;;;17.30;99.90;;;;;;5014623;28;20478;-84
2023/10/07 02:21:23;;;;;;;9.75;5.57;;;17.30;99.90;;;;;;5013251;28;20459;-84
2023/10/07 02:23:49;;;;;;;11.88;5.93;;;17.30;99.90;;;;;;5013524;28;20065;-82
2023/10/07 02:26:19;;;;;;;9.48;5.43;;;17.30;99.90;;;;;;5014959;28;20078;-83
2023/10/07 02:28:50;;;;;;;12.98;5.35;;;17.30;99.90;;;;;;5014391;28;20394;-83
2023/10/07 02:31:20;;;;;;;13.25;4.90;;;17.40;99.90;;;;;;5014671;28;20052;-83
2023/10/07 02:33:53;;;;;;;12.73;5.03;;;17.30;99.90;;;;;;5014931;28;20048;-84
2023/10/07 02:36:28;;;;;;;12.20;4.88;;;17.30;99.90;;;;;;5014339;28;20077;-82
2023/10/07 02:39:18;;;;;;;11.00;4.78;;;17.30;99.90;;;;;;5014271;28;20053;-84
2023/10/07 02:41:47;;;;;;;11.48;4.70;;;17.40;99.90;;;;;;5014313;28;20049;-83
2023/10/07 02:44:16;;;;;;;12.32;4.75;;;17.40;99.90;;;;;;5012844;28;20469;-83
2023/10/07 02:46:43;;;;;;;9.80;4.68;;;17.40;99.90;;;;;;5014001;28;20041;-85
2023/10/07 02:49:13;;;;;;;14.43;5.15;;;17.50;99.90;;;;;;5013976;28;20398;-83
2023/10/07 02:51:39;;;;;;;7.32;4.80;;;17.50;99.90;;;;;;5014427;28;20049;-83
2023/10/07 02:54:19;;;;;;;15.90;5.55;;;17.50;99.90;;;;;;5014294;28;20226;-87
2023/10/07 02:59:31;;;;;;;11.00;4.85;;;17.60;99.90;;;;;;5013557;28;20062;-85
2023/10/07 03:02:12;;;;;;;10.32;4.97;;;17.50;99.90;;;;;;5013667;28;20042;-84
2023/10/07 03:04:55;;;;;;;16.73;5.10;;;17.60;99.90;;;;;;5013703;28;20102;-84
2023/10/07 03:07:25;;;;;;;10.27;4.63;;;17.60;99.90;;;;;;5013787;28;20056;-83
2023/10/07 03:12:38;;;;;;;12.80;5.60;;;17.60;99.90;;;;;;5012614;28;20140;-83
2023/10/07 03:15:20;;;;;;;13.48;4.78;;;17.60;99.90;;;;;;5013258;28;20046;-83
2023/10/07 03:17:46;;;;;;;11.20;4.43;;;17.70;99.90;;;;;;5012700;28;20053;-84
2023/10/07 03:28:21;;;;;;;8.43;4.70;;;17.80;99.90;;;;;;5013378;28;20093;-85
2023/10/07 03:30:51;;;;;;;10.05;4.75;;;17.70;99.90;;;;;;5012144;28;20046;-85
2023/10/07 03:33:23;;;;;;;12.45;5.10;;;17.80;99.90;;;;;;5013282;28;20052;-85
2023/10/07 03:38:27;;;;;;;11.82;4.15;;;17.70;99.90;;;;;;5013823;28;20061;-85
2023/10/07 03:40:54;;;;;;;11.75;4.50;;;17.70;99.90;;;;;;5013600;28;20046;-83
2023/10/07 03:43:26;;;;;;;10.07;3.92;;;17.80;99.90;;;;;;5013220;28;20046;-86
2023/10/07 03:45:56;;;;;;;9.95;4.93;;;17.70;99.90;;;;;;5013122;28;20087;-86
2023/10/07 03:48:31;;;;;;;7.68;4.70;;;17.70;99.90;;;;;;5012978;28;20092;-85
2023/10/07 03:51:08;;;;;;;10.25;4.30;;;17.70;99.90;;;;;;5013611;28;20048;-84
2023/10/07 03:53:44;;;;;;;11.00;4.65;;;17.80;99.90;;;;;;5013463;28;20045;-80
2023/10/07 03:56:17;;;;;;;7.15;4.00;;;17.80;99.90;;;;;;5013056;28;20125;-84
2023/10/07 03:58:45;;;;;;;11.98;4.95;;;17.80;99.90;;;;;;5013190;28;20065;-84
2023/10/07 04:01:16;;;;;;;11.45;4.60;;;17.80;99.90;;;;;;5012796;28;20091;-83
2023/10/07 04:03:47;;;;;;;13.18;4.75;;;17.80;99.90;;;;;;5012482;28;20437;-84
2023/10/07 04:06:20;;;;;;;11.18;4.60;;;17.80;99.90;;;;;;5012837;28;20152;-83
2023/10/07 04:08:56;;;;;;;;;;;17.80;99.90;;;;;;5013841;28;20516;-82
2023/10/07 04:11:28;;;;;;;9.25;4.30;;;17.70;99.90;;;;;;5012519;28;19944;-84
2023/10/07 04:13:55;;;;;;;10.95;4.72;;;17.80;99.90;;;;;;5011996;28;20147;-83
2023/10/07 04:16:25;;;;;;;13.35;4.65;;;17.70;99.90;;;;;;5012733;28;20061;-83
2023/10/07 04:19:30;;;;;;;14.77;5.53;;;17.70;99.90;;;;;;5013202;28;20050;-83
2023/10/07 04:21:45;;;;;;;9.85;4.40;;;17.80;99.90;;;;;;5012339;28;20046;-82
2023/10/07 04:24:12;;;;;;;9.05;4.60;;;17.70;99.90;;;;;;5012588;28;20482;-83
2023/10/07 04:26:51;;;;;;;13.27;4.93;;;17.70;99.90;;;;;;5012625;28;20050;-83
2023/10/07 04:29:18;;;;;;;10.23;3.97;;;17.80;99.90;;;;;;5012855;28;20115;-84
2023/10/07 04:31:51;;;;;;;11.82;4.88;;;17.80;99.90;;;;;;5015504;28;20041;-83
2023/10/07 04:34:20;;;;;;;;;;;17.80;99.90;;;;;;5016953;28;20053;-83
2023/10/07 04:39:37;;;;;;;9.43;4.65;;;17.70;99.90;;;;;;5016287;28;20054;-84
2023/10/07 04:42:04;;;;;;;12.80;4.35;;;17.80;99.90;;;;;;5016534;28;20382;-81
2023/10/07 04:50:07;;;;;;;8.38;4.53;;;17.80;99.90;;;;;;5016448;28;20082;-85
2023/10/07 04:52:40;;;;;;;8.77;4.47;;;17.80;99.90;;;;;;5016318;28;20046;-82
2023/10/07 04:55:11;;;;;;;8.75;4.85;;;17.80;99.90;;;;;;5014887;28;20045;-84
2023/10/07 05:02:59;;;;;;;8.93;4.80;;;17.70;99.90;;;;;;5015859;28;20100;-84
2023/10/07 05:05:29;;;;;;;13.43;5.20;;;17.70;99.90;;;;;;4998551;28;20049;-82
2023/10/07 05:08:10;;;;;;;7.75;4.93;;;17.70;99.90;;;;;;5016274;28;20050;-84
2023/10/07 05:10:41;;;;;;;7.80;4.70;;;17.80;99.90;;;;;;5015284;28;20057;-84
2023/10/07 05:13:07;;;;;;;7.32;4.35;;;17.80;99.90;;;;;;5015746;28;20119;-80
2023/10/07 05:15:38;;;;;;;10.57;4.65;;;17.80;99.90;;;;;;5014414;28;20053;-82
2023/10/07 05:18:07;;;;;;;11.30;4.50;;;17.80;99.90;;;;;;5015053;28;20478;-83
2023/10/07 05:20:37;;;;;;;9.93;4.22;;;17.80;99.90;;;;;;5015571;28;20103;-80
2023/10/07 05:23:04;;;;;;;10.00;4.95;;;17.80;99.90;;;;;;5014597;28;20045;-83
2023/10/07 05:25:35;;;;;;;11.30;4.68;;;17.80;99.90;;;;;;5015650;28;20120;-83
2023/10/07 05:28:11;;;;;;;9.18;4.30;;;17.80;99.90;;;;;;5015711;28;20049;-82
2023/10/07 05:30:50;;;;;;;10.07;4.65;;;17.80;99.90;;;;;;5014287;28;20045;-80
2023/10/07 05:33:25;;;;;;;13.75;5.35;;;17.80;99.90;;;;;;5015173;28;20049;-83
2023/10/07 05:36:14;;;;;;;7.15;4.45;;;17.80;99.90;;;;;;5014358;28;20496;-83
2023/10/07 05:38:44;;;;;;;9.45;3.90;;;17.70;99.90;;;;;;5015534;28;20057;-81
2023/10/07 05:41:14;;;;;;;8.85;4.63;;;17.70;99.90;;;;;;5014841;28;20483;-82
2023/10/07 05:43:46;;;;;;;7.55;3.92;;;17.70;99.90;;;;;;5014671;28;20159;-81
2023/10/07 05:46:13;;;;;;;8.70;4.70;;;17.70;99.90;;;;;;5014995;28;20046;-82
2023/10/07 05:48:40;;;;;;;8.63;4.00;;;17.70;99.90;;;;;;5014788;28;20045;-81
2023/10/07 05:51:09;;;;;;;9.25;4.88;;;17.80;99.90;;;;;;5014840;28;20474;-82
2023/10/07 05:53:39;;;;;;;9.13;4.28;;;17.80;99.90;;;;;;5014802;28;20053;-78
2023/10/07 05:56:06;;;;;;;7.78;4.35;;;17.70;99.90;;;;;;5014573;28;20053;-81
2023/10/07 05:58:36;;;;;;;9.77;4.47;;;17.70;99.90;;;;;;5014442;28;20096;-82
2023/10/07 06:01:03;;;;;;;11.25;4.15;;;17.60;99.90;;;;;;5014692;28;20060;-81
2023/10/07 06:03:30;;;;;;;9.73;4.40;;;17.70;99.90;;;;;;5014886;28;20061;-81
2023/10/07 06:05:57;;;;;;;7.60;4.07;;;17.70;99.90;;;;;;5014752;28;20049;-81
2023/10/07 06:08:29;;;;;;;13.07;4.38;;;17.60;99.90;;;;;;5014622;28;20132;-82
2023/10/07 06:10:56;;;;;;;10.90;4.82;;;17.70;99.90;;;;;;5015060;28;20109;-82
2023/10/07 06:13:27;;;;;;;13.30;5.45;;;17.60;99.90;;;;;;5014556;28;20042;-82
2023/10/07 06:15:59;;;;;;;8.95;4.28;;;17.60;99.90;;;;;;5013185;28;20050;-83
2023/10/07 06:18:25;;;;;;;13.27;4.68;;;17.60;99.90;;;;;;5014289;28;20065;-81
2023/10/07 06:20:52;;;;;;;10.95;4.30;;;17.50;99.90;;;;;;5013249;28;20061;-83
2023/10/07 06:23:25;;;;;;;11.90;4.95;;;17.50;99.90;;;;;;5014392;28;20058;-83
2023/10/07 06:25:51;;;;;;;14.23;4.95;;;17.50;99.90;;;;;;5014068;28;20483;-82
2023/10/07 06:28:29;;;;;;;16.50;4.88;;;17.50;99.90;;;;;;5014108;28;20045;-82
2023/10/07 06:31:13;;;;;;;12.63;4.80;;;17.40;99.90;;;;;;5014615;28;20050;-82
2023/10/07 06:33:43;;;;;;;9.75;5.00;;;17.40;99.90;;;;;;5014251;28;20046;-81
2023/10/07 06:36:12;;;;;;;9.32;4.68;;;17.40;99.90;;;;;;5013904;28;20128;-82
2023/10/07 06:38:45;;;;;;;8.88;4.80;;;17.40;99.90;;;;;;5013989;28;20125;-82
2023/10/07 06:41:12;;;;;;;11.50;4.18;;;17.40;99.90;;;;;;5013926;28;20042;-83
2023/10/07 06:43:50;;;;;;;7.68;4.50;;;17.40;99.90;;;;;;5014382;28;20038;-84
2023/10/07 06:46:21;;;;;;;8.98;4.38;;;17.40;99.90;;;;;;5013869;28;20096;-82
2023/10/07 06:48:50;;;;;;;8.80;4.40;;;17.40;99.90;;;;;;5013784;28;20045;-83
2023/10/07 06:51:16;;;;;;;11.27;4.85;;;17.50;99.90;;;;;;5012572;28;20060;-84
2023/10/07 06:53:45;;;;;;;10.30;4.20;;;17.50;99.90;;;;;;5013301;28;20046;-85
2023/10/07 06:56:21;;;;;;;8.70;4.03;;;17.50;99.90;;;;;;5014074;28;20493;-83
2023/10/07 06:58:54;;;;;;;10.13;5.10;;;17.40;99.90;;;;;;5012619;28;20085;-79
2023/10/07 07:04:09;;;;;;;10.45;4.40;;;17.50;99.90;;;;;;5013997;28;20060;-79
2023/10/07 07:06:45;;;;;;;9.90;4.63;;;17.50;99.90;;;;;;5013616;28;20049;-80
2023/10/07 07:12:09;;;;;;;14.68;5.25;;;17.60;99.90;;;;;;5013399;28;20060;-80
2023/10/07 07:14:35;;;;;;;9.52;4.30;;;17.50;99.90;;;;;;5013225;28;20049;-79
2023/10/07 07:22:36;;;;;;;11.13;5.03;;;17.80;99.90;;;;;;5012919;28;20058;-81
2023/10/07 07:25:05;;;;;;;11.70;5.82;;;17.90;99.90;;;;;;5013024;28;20093;-81
2023/10/07 07:27:34;;;;;;;11.48;5.47;;;17.90;99.90;;;;;;5012515;28;20100;-81
2023/10/07 07:30:09;;;;;;;14.77;6.03;;;18.00;99.90;;;;;;5013013;28;20046;-81
2023/10/07 07:32:37;;;;;;;9.63;5.18;;;18.10;99.90;;;;;;5013078;28;20490;-81
2023/10/07 07:35:05;;;;;;;13.90;5.85;;;18.10;99.90;;;;;;5013156;28;20085;-80
2023/10/07 07:37:34;;;;;;;9.60;5.40;;;18.00;99.90;;;;;;5013003;28;20121;-80
2023/10/07 07:40:09;;;;;;;8.57;4.55;;;18.00;99.90;;;;;;5012860;28;20053;-80
2023/10/07 07:42:36;;;;;;;8.75;4.95;;;18.00;99.90;;;;;;5012807;28;20491;-80
2023/10/07 07:45:14;;;;;;;13.82;5.68;;;18.10;99.90;;;;;;5011588;28;20057;-80
2023/10/07 07:47:41;;;;;;;12.52;5.30;;;18.10;99.90;;;;;;5013488;28;20069;-79
2023/10/07 07:50:08;;;;;;;11.82;4.80;;;18.10;99.90;;;;;;5013179;28;20045;-80
2023/10/07 07:52:34;;;;;;;9.45;4.88;;;18.10;99.90;;;;;;5013025;28;20049;-82
2023/10/07 07:54:59;;;;;;;8.50;4.60;;;18.20;99.90;;;;;;5012790;28;20052;-80
2023/10/07 07:57:25;;;;;;;8.63;4.85;;;18.30;99.90;;;;;;5012081;28;20050;-80
2023/10/07 07:59:53;;;;;;;10.15;5.03;;;18.30;99.90;;;;;;5012679;28;20058;-79
2023/10/07 08:02:24;;;;;;;8.27;4.13;;;18.40;99.90;;;;;;5012537;28;20076;-80
2023/10/07 08:04:50;;;;;;;10.57;5.00;;;18.50;99.90;;;;;;5012093;28;20042;-80
2023/10/07 08:07:18;;;;;;;9.30;4.57;;;18.60;99.90;;;;;;5011560;28;20053;-80
2023/10/07 08:09:46;;;;;;;10.55;4.95;;;18.70;99.90;;;;;;5011626;28;20056;-81
2023/10/07 08:12:18;;;;;;;7.68;4.10;;;18.80;99.90;;;;;;5012806;28;20118;-83
2023/10/07 08:14:46;;;;;;;9.40;4.72;;;18.90;99.90;;;;;;5013122;28;20081;-81
2023/10/07 08:17:19;;;;;;;8.27;4.13;;;19.00;99.90;;;;;;5012686;28;20053;-81
2023/10/07 08:19:52;;;;;;;8.25;3.78;;;19.00;99.90;;;;;;5013153;28;20050;-81
2023/10/07 08:22:20;;;;;;;8.20;4.25;;;19.10;99.90;;;;;;5013327;28;20079;-79
2023/10/07 08:24:47;;;;;;;12.52;5.57;;;19.20;99.90;;;;;;5012729;28;20061;-80
2023/10/07 08:30:05;;;;;;;7.28;4.00;;;19.20;99.90;;;;;;5012007;28;20057;-78
2023/10/07 08:32:37;;;;;;;11.00;3.95;;;19.20;99.90;;;;;;5012704;28;20145;-78
2023/10/07 08:35:16;;;;;;;12.60;4.65;;;19.20;99.90;;;;;;5012709;28;20081;-77
2023/10/07 08:37:46;;;;;;;12.90;5.20;;;19.30;99.90;;;;;;5014625;28;20135;-76
2023/10/07 08:40:26;;;;;;;10.02;4.82;;;19.40;99.90;;;;;;5020479;28;20352;-79
2023/10/07 08:42:58;;;;;;;6.50;3.92;;;19.50;99.90;;;;;;5011826;28;20050;-80
2023/10/07 08:45:28;;;;;;;14.50;5.35;;;19.40;99.90;;;;;;5012909;28;20108;-79
2023/10/07 08:48:08;;;;;;;8.50;4.53;;;19.40;99.90;;;;;;5012659;28;20471;-79
2023/10/07 08:50:42;;;;;;;10.15;4.32;;;19.30;99.90;;;;;;5012607;28;20053;-80
2023/10/07 08:53:08;;;;;;;10.15;4.90;;;19.30;99.90;;;;;;5012550;28;20050;-79
2023/10/07 08:55:34;;;;;;;6.50;3.90;;;19.30;99.90;;;;;;5012171;28;20121;-80
2023/10/07 08:58:03;;;;;;;7.93;4.75;;;19.30;99.90;;;;;;5012410;28;20084;-79
2023/10/07 09:00:38;;;;;;;9.43;4.75;;;19.30;99.90;;;;;;5012151;28;20048;-80
2023/10/07 09:03:14;;;;;;;11.57;4.50;;;19.30;99.90;;;;;;5012367;28;20075;-80
2023/10/07 09:05:44;;;;;;;11.02;4.68;;;19.30;99.90;;;;;;5010928;28;20490;-82
2023/10/07 09:08:15;;;;;;;9.32;4.03;;;19.30;99.90;;;;;;5012189;28;20049;-79
2023/10/07 09:10:46;;;;;;;10.70;4.65;;;19.20;99.90;;;;;;5011774;28;20054;-79
2023/10/07 09:13:29;;;;;;;10.68;4.53;;;19.10;99.90;;;;;;5012235;28;20049;-79
2023/10/07 09:16:06;;;;;;;9.77;4.68;;;19.10;99.90;;;;;;4997809;28;20054;-81
2023/10/07 09:18:41;;;;;;;11.75;4.38;;;19.20;99.90;;;;;;5014604;28;20056;-80
2023/10/07 09:21:09;;;;;;;10.02;4.78;;;19.30;99.90;;;;;;5016141;28;20049;-82
2023/10/07 09:23:43;;;;;;;10.02;5.18;;;19.30;99.90;;;;;;5015986;28;20207;-80
2023/10/07 09:26:30;;;;;;;18.02;6.45;;;19.30;99.90;;;;;;5015505;28;20054;-80
2023/10/07 09:29:06;;;;;;;9.40;5.22;;;19.40;99.90;;;;;;5015901;28;20061;-80
2023/10/07 09:31:35;;;;;;;9.68;4.43;;;19.40;99.90;;;;;;5015590;28;20163;-79
2023/10/07 09:34:09;;;;;;;12.05;4.32;;;19.40;99.90;;;;;;5015302;28;20123;-80
2023/10/07 09:36:43;;;;;;;13.52;5.32;;;19.30;99.90;;;;;;5015299;28;20053;-82
2023/10/07 09:41:39;;;;;;;14.80;4.93;;;19.30;99.90;;;;;;5013953;28;20052;-79
2023/10/07 09:44:28;;;;;;;11.90;5.05;;;19.30;99.90;;;;;;5015125;28;20065;-79
2023/10/07 09:46:55;;;;;;;11.75;6.18;;;19.20;99.90;;;;;;5015204;28;20049;-79
2023/10/07 09:49:23;;;;;;;12.15;5.60;;;19.20;99.90;;;;;;5015004;28;20054;-81
2023/10/07 09:52:02;;;;;;;9.40;5.15;;;19.20;99.90;;;;;;5015117;28;20411;-79
2023/10/07 09:54:36;;;;;;;8.35;4.88;;;19.20;99.90;;;;;;5015163;28;20131;-80
2023/10/07 09:57:07;;;;;;;9.88;4.28;;;19.10;99.90;;;;;;5014220;28;20096;-78
2023/10/07 09:59:58;;;;;;;11.70;4.97;;;19.10;99.90;;;;;;5015000;28;20050;-80
2023/10/07 10:02:59;;;;;;;10.15;5.50;;;19.20;99.90;;;;;;5014689;28;20049;-82
2023/10/07 10:05:44;;;;;;;9.27;4.47;;;19.10;99.90;;;;;;5015146;28;20045;-81
2023/10/07 10:08:45;;;;;;;7.32;4.75;;;19.10;99.90;;;;;;5014706;28;20052;-83
2023/10/07 10:11:30;;;;;;;16.60;4.65;;;19.10;99.90;;;;;;5014593;28;20084;-82
2023/10/07 10:14:09;;;;;;;11.30;4.90;;;19.20;99.90;;;;;;5014617;28;20060;-82
2023/10/07 10:17:00;;;;;;;10.18;6.03;;;19.30;99.90;;;;;;5014407;28;20085;-80
2023/10/07 10:19:47;;;;;;;12.20;4.88;;;19.40;99.90;;;;;;5013603;28;20137;-81
2023/10/07 10:22:22;;;;;;;8.90;4.30;;;19.60;99.90;;;;;;5014255;28;20104;-77
2023/10/07 10:24:55;;;;;;;14.05;4.88;;;19.80;99.90;;;;;;5013859;28;20042;-75
2023/10/07 10:27:21;;;;;;;8.73;4.88;;;19.90;99.90;;;;;;4998204;28;20482;-81
2023/10/07 10:29:55;;;;;;;7.88;4.65;;;20.20;99.90;;;;;;5013541;28;20053;-80
2023/10/07 10:32:36;;;;;;;10.88;4.25;;;20.40;99.90;;;;;;5014722;28;20117;-81
2023/10/07 10:35:06;;;;;;;7.05;4.38;;;20.40;99.90;;;;;;5014136;28;20041;-81
2023/10/07 10:37:37;;;;;;;15.30;5.50;;;20.20;99.90;;;;;;5014065;28;20049;-80
2023/10/07 10:40:17;;;;;;;9.40;4.85;;;20.10;99.90;;;;;;5013245;28;20045;-78
2023/10/07 10:42:44;;;;;;;8.02;4.35;;;20.00;99.90;;;;;;5014110;28;20085;-81
2023/10/07 10:45:30;;;;;;;11.85;5.28;;;20.00;99.90;;;;;;5014236;28;20116;-80
2023/10/07 10:47:59;;;;;;;12.90;5.70;;;20.00;99.90;;;;;;5013455;28;20521;-82
2023/10/07 10:50:28;;;;;;;7.78;4.70;;;20.00;99.90;;;;;;5013729;28;20125;-77
2023/10/07 10:52:55;;;;;;;10.45;5.00;;;20.00;99.90;;;;;;5013631;28;20045;-82
2023/10/07 10:55:24;;;;;;;6.93;4.60;;;20.00;99.90;;;;;;5013647;28;20049;-82
2023/10/07 10:57:52;;;;;;;14.45;5.05;;;20.20;99.90;;;;;;5013646;28;20072;-82
2023/10/07 11:00:28;;;;;;;10.95;4.85;;;20.30;99.90;;;;;;5013379;28;20120;-82
2023/10/07 11:02:55;;;;;;;9.32;4.28;;;20.40;99.90;;;;;;5014062;28;20468;-82
2023/10/07 11:05:21;;;;;;;8.00;4.07;;;20.50;99.90;;;;;;5013999;28;20042;-84
2023/10/07 11:07:50;;;;;;;10.57;4.50;;;20.40;99.90;;;;;;5013518;28;20492;-83
2023/10/07 11:10:22;;;;;;;9.38;4.30;;;20.30;99.90;;;;;;5013206;28;20053;-84
2023/10/07 11:12:56;;;;;;;10.38;4.57;;;20.30;99.90;;;;;;5013100;28;20050;-83
2023/10/07 11:15:26;;;;;;;12.48;4.10;;;20.20;99.90;;;;;;5012712;28;20121;-82
2023/10/07 11:18:21;;;;;;;10.50;5.00;;;20.20;99.90;;;;;;5013321;28;20042;-82
2023/10/07 11:20:45;;;;;;;10.93;4.60;;;20.10;99.90;;;;;;5012937;28;20172;-81
2023/10/07 11:23:15;;;;;;;10.30;4.38;;;20.00;99.90;;;;;;5012910;28;20062;-83
2023/10/07 11:25:42;;;;;;;8.52;4.68;;;20.10;99.90;;;;;;5012698;28;20081;-83
2023/10/07 11:28:09;;;;;;;10.45;4.80;;;20.00;99.90;;;;;;5013106;28;20122;-81
2023/10/07 11:30:48;;;;;;;8.93;5.47;;;19.90;99.90;;;;;;5013578;28;20041;-82
2023/10/07 11:33:17;;;;;;;8.98;4.70;;;19.70;99.90;;;;;;5013180;28;20041;-82
2023/10/07 11:35:55;;;;;;;10.38;5.00;;;19.80;99.90;;;;;;5013411;28;20089;-82
2023/10/07 11:38:21;;;;;;;13.10;4.95;;;19.80;99.90;;;;;;5013541;28;20103;-81
2023/10/07 11:40:46;;;;;;;10.05;4.07;;;19.70;99.90;;;;;;5012680;28;20053;-83
2023/10/07 11:43:12;;;;;;;15.98;4.80;;;19.80;99.90;;;;;;5012940;28;20050;-81
2023/10/07 11:45:39;;;;;;;5.53;4.55;;;19.80;99.90;;;;;;5012030;28;20407;-79
2023/10/07 11:48:08;;;;;;;10.40;4.90;;;19.80;99.90;;;;;;5012872;28;20053;-81
2023/10/07 11:50:37;;;;;;;9.07;4.40;;;19.70;99.90;;;;;;5013123;28;20509;-78
2023/10/07 11:53:04;;;;;;;10.02;5.25;;;19.70;99.90;;;;;;5012815;28;20125;-80
2023/10/07 11:55:31;;;;;;;10.45;4.60;;;19.70;99.90;;;;;;5011644;28;20121;-81
2023/10/07 11:58:00;;;;;;;11.50;5.43;;;19.80;99.90;;;;;;5012824;28;20129;-85
2023/10/07 12:00:34;;;;;;;7.20;4.25;;;19.90;99.90;;;;;;5012622;28;20093;-86
2023/10/07 12:03:06;;;;;;;11.50;4.53;;;19.80;99.90;;;;;;5013034;28;20430;-84
2023/10/07 12:05:32;;;;;;;8.25;4.90;;;20.00;99.90;;;;;;5012715;28;20050;-83
2023/10/07 12:08:01;;;;;;;9.40;4.70;;;20.20;99.90;;;;;;5012674;28;20049;-81
2023/10/07 12:10:33;;;;;;;12.27;5.25;;;20.30;99.90;;;;;;5012350;28;20042;-86
2023/10/07 12:13:00;;;;;;;10.23;4.75;;;20.30;99.90;;;;;;5012924;28;20054;-83
2023/10/07 12:15:26;;;;;;;13.88;5.05;;;20.20;99.90;;;;;;5013024;28;20123;-83
2023/10/07 12:17:52;;;;;;;8.88;4.50;;;20.30;99.90;;;;;;5012479;28;20485;-84
2023/10/07 12:20:21;;;;;;;9.18;4.72;;;20.40;99.90;;;;;;5012429;28;20046;-86
2023/10/07 12:22:47;;;;;;;10.90;4.70;;;20.40;99.90;;;;;;5012519;28;20056;-85
2023/10/07 12:25:16;;;;;;;8.68;4.60;;;20.40;99.90;;;;;;5012619;28;20077;-83
2023/10/07 12:27:45;;;;;;;10.73;4.57;;;20.20;99.90;;;;;;5013035;28;20054;-84
2023/10/07 12:30:14;;;;;;;6.88;4.75;;;20.20;99.90;;;;;;5012334;28;20052;-81
2023/10/07 12:32:43;;;;;;;12.70;4.93;;;20.10;99.90;;;;;;5011197;28;20050;-81
2023/10/07 12:35:10;;;;;;;7.93;4.53;;;20.10;99.90;;;;;;5012624;28;20046;-83
2023/10/07 12:37:40;;;;;;;11.10;5.45;;;19.90;99.90;;;;;;5012301;28;20046;-82
2023/10/07 12:40:11;;;;;;;12.27;6.18;;;19.90;99.90;;;;;;5011941;28;20422;-82
2023/10/07 12:42:41;;;;;;;8.20;4.88;;;20.00;99.90;;;;;;5011092;28;20046;-81
2023/10/07 12:45:09;;;;;;;9.63;5.05;;;20.00;99.90;;;;;;5012229;28;20504;-85
2023/10/07 12:47:36;;;;;;;7.30;4.13;;;20.00;99.90;;;;;;5012247;28;20046;-85
2023/10/07 12:52:48;;;;;;;9.30;4.72;;;20.10;99.90;;;;;;5014551;28;20053;-83
2023/10/07 12:55:15;;;;;;;8.65;5.43;;;20.10;99.90;;;;;;5016387;28;20046;-80
2023/10/07 12:57:41;;;;;;;6.97;4.47;;;20.10;99.90;;;;;;5014496;28;20054;-81
2023/10/07 13:00:28;;;;;;;7.85;4.68;;;20.10;99.90;;;;;;5015772;28;20502;-82
2023/10/07 13:02:54;;;;;;;9.75;4.32;;;20.10;99.90;;;;;;5014930;28;20079;-81
2023/10/07 13:05:22;;;;;;;11.63;5.13;;;20.00;99.90;;;;;;5015720;28;20045;-83
2023/10/07 13:07:49;;;;;;;8.60;4.63;;;19.90;99.90;;;;;;5015695;28;20165;-80
2023/10/07 13:10:19;;;;;;;9.88;4.50;;;19.90;99.90;;;;;;5015518;28;20506;-83
2023/10/07 13:12:46;;;;;;;9.75;4.90;;;19.90;99.90;;;;;;5015981;28;20050;-83
2023/10/07 13:15:16;;;;;;;12.60;5.22;;;19.80;99.90;;;;;;5016111;28;20088;-83
2023/10/07 13:17:48;;;;;;;13.70;5.40;;;19.70;99.90;;;;;;5015792;28;20049;-81
2023/10/07 13:20:20;;;;;;;9.25;4.90;;;19.70;99.90;;;;;;5015398;28;20045;-81
2023/10/07 13:22:49;;;;;;;13.02;5.18;;;19.70;99.90;;;;;;5015452;28;20046;-86
2023/10/07 13:25:19;;;;;;;12.75;5.10;;;19.70;99.90;;;;;;5015617;28;20559;-83
2023/10/07 13:27:46;;;;;;;12.75;5.70;;;19.60;99.90;;;;;;5015683;28;20132;-82
2023/10/07 13:30:13;;;;;;;10.88;5.57;;;19.60;99.90;;;;;;5015251;28;20050;-86
2023/10/07 13:32:52;;;;;;;9.25;5.13;;;19.50;99.90;;;;;;5014022;28;20088;-85
2023/10/07 13:35:19;;;;;;;9.98;4.95;;;19.50;99.90;;;;;;5014178;28;20046;-86
2023/10/07 13:37:46;;;;;;;10.02;5.38;;;19.50;99.90;;;;;;5014856;28;20515;-83
2023/10/07 13:40:16;;;;;;;9.45;4.88;;;19.50;99.90;;;;;;5015541;28;20448;-83
2023/10/07 13:42:47;;;;;;;9.38;4.57;;;19.50;99.90;;;;;;5014985;28;20102;-79
2023/10/07 13:45:18;;;;;;;9.20;4.63;;;19.50;99.90;;;;;;5015491;28;20067;-83
2023/10/07 13:47:44;;;;;;;8.77;4.60;;;19.50;99.90;;;;;;5014844;28;20133;-81
2023/10/07 13:50:14;;;;;;;8.48;4.70;;;19.50;99.90;;;;;;5015255;28;20046;-82
2023/10/07 13:52:51;;;;;;;8.88;5.28;;;19.50;99.90;;;;;;5014394;28;20436;-82
2023/10/07 13:57:56;;;;;;;10.90;4.80;;;19.50;99.90;;;;;;5014748;28;20115;-83
2023/10/07 14:03:19;;;;;;;8.77;4.90;;;19.40;99.90;;;;;;5013607;28;20061;-83